NCAR-RAP Real-Time Weather Data

Output produced by METARs form (23 February 2020  01:54 UTC)
found at http://weather.rap.ucar.edu/surface/
 
KGEG 230053Z 21008KT 10SM FEW050 FEW080 BKN150 BKN180 06/M02 A3002 RMK AO2 SLP182 T00611017